sensor_id;sensor_type;location;lat;lon;timestamp;P1;durP1;ratioP1;P2;durP2;ratioP2
27495;SDS011;14929;51.336;9.416;2022-07-25T00:00:33;2.60;;;2.40;;
27495;SDS011;14929;51.336;9.416;2022-07-25T00:03:01;2.75;;;2.55;;
27495;SDS011;14929;51.336;9.416;2022-07-25T00:05:28;2.50;;;2.30;;
27495;SDS011;14929;51.336;9.416;2022-07-25T00:07:56;2.33;;;2.13;;
27495;SDS011;14929;51.336;9.416;2022-07-25T00:10:24;2.33;;;2.13;;
27495;SDS011;14929;51.336;9.416;2022-07-25T00:12:53;2.47;;;2.28;;
27495;SDS011;14929;51.336;9.416;2022-07-25T00:15:20;2.38;;;2.28;;
27495;SDS011;14929;51.336;9.416;2022-07-25T00:17:48;4.03;;;2.60;;
27495;SDS011;14929;51.336;9.416;2022-07-25T00:20:15;2.13;;;2.03;;
27495;SDS011;14929;51.336;9.416;2022-07-25T00:22:43;2.42;;;2.22;;
27495;SDS011;14929;51.336;9.416;2022-07-25T00:25:10;3.45;;;2.10;;
27495;SDS011;14929;51.336;9.416;2022-07-25T00:27:38;2.00;;;1.90;;
27495;SDS011;14929;51.336;9.416;2022-07-25T00:30:08;2.13;;;2.03;;
27495;SDS011;14929;51.336;9.416;2022-07-25T00:32:36;2.53;;;2.33;;
27495;SDS011;14929;51.336;9.416;2022-07-25T00:35:04;2.63;;;2.42;;
27495;SDS011;14929;51.336;9.416;2022-07-25T00:37:32;2.10;;;2.00;;
27495;SDS011;14929;51.336;9.416;2022-07-25T00:40:00;2.10;;;2.00;;
27495;SDS011;14929;51.336;9.416;2022-07-25T00:42:27;2.80;;;2.60;;
27495;SDS011;14929;51.336;9.416;2022-07-25T00:44:55;2.42;;;2.22;;
27495;SDS011;14929;51.336;9.416;2022-07-25T00:47:25;2.40;;;2.05;;
27495;SDS011;14929;51.336;9.416;2022-07-25T00:49:53;2.50;;;2.30;;
27495;SDS011;14929;51.336;9.416;2022-07-25T00:52:20;2.88;;;2.67;;
27495;SDS011;14929;51.336;9.416;2022-07-25T00:54:48;1.92;;;1.83;;
27495;SDS011;14929;51.336;9.416;2022-07-25T00:57:16;2.30;;;2.20;;
27495;SDS011;14929;51.336;9.416;2022-07-25T00:59:43;3.40;;;3.15;;
27495;SDS011;14929;51.336;9.416;2022-07-25T01:02:11;2.42;;;2.22;;
27495;SDS011;14929;51.336;9.416;2022-07-25T01:04:40;2.58;;;2.20;;
27495;SDS011;14929;51.336;9.416;2022-07-25T01:07:08;2.15;;;2.05;;
27495;SDS011;14929;51.336;9.416;2022-07-25T01:09:35;2.28;;;2.17;;
27495;SDS011;14929;51.336;9.416;2022-07-25T01:12:03;2.00;;;1.90;;
27495;SDS011;14929;51.336;9.416;2022-07-25T01:14:31;1.95;;;1.85;;
27495;SDS011;14929;51.336;9.416;2022-07-25T01:16:59;1.83;;;1.73;;
27495;SDS011;14929;51.336;9.416;2022-07-25T01:19:27;2.13;;;2.00;;
27495;SDS011;14929;51.336;9.416;2022-07-25T01:21:55;2.40;;;2.30;;
27495;SDS011;14929;51.336;9.416;2022-07-25T01:24:23;1.88;;;1.77;;
27495;SDS011;14929;51.336;9.416;2022-07-25T01:26:51;2.30;;;2.10;;
27495;SDS011;14929;51.336;9.416;2022-07-25T01:29:18;2.50;;;2.30;;
27495;SDS011;14929;51.336;9.416;2022-07-25T01:31:46;2.40;;;2.22;;
27495;SDS011;14929;51.336;9.416;2022-07-25T01:34:13;2.05;;;1.95;;
27495;SDS011;14929;51.336;9.416;2022-07-25T01:36:41;2.13;;;2.00;;
27495;SDS011;14929;51.336;9.416;2022-07-25T01:39:10;2.22;;;2.03;;
27495;SDS011;14929;51.336;9.416;2022-07-25T01:41:37;2.17;;;2.08;;
27495;SDS011;14929;51.336;9.416;2022-07-25T01:44:05;2.28;;;2.17;;
27495;SDS011;14929;51.336;9.416;2022-07-25T01:46:32;2.63;;;2.42;;
27495;SDS011;14929;51.336;9.416;2022-07-25T01:49:00;7.55;;;2.50;;
27495;SDS011;14929;51.336;9.416;2022-07-25T01:51:27;2.80;;;2.60;;
27495;SDS011;14929;51.336;9.416;2022-07-25T01:53:55;2.83;;;2.63;;
27495;SDS011;14929;51.336;9.416;2022-07-25T01:56:24;2.53;;;2.35;;
27495;SDS011;14929;51.336;9.416;2022-07-25T01:58:51;2.53;;;2.30;;
27495;SDS011;14929;51.336;9.416;2022-07-25T02:01:19;2.53;;;2.33;;
27495;SDS011;14929;51.336;9.416;2022-07-25T02:03:47;3.33;;;2.90;;
27495;SDS011;14929;51.336;9.416;2022-07-25T02:06:14;2.70;;;2.50;;
27495;SDS011;14929;51.336;9.416;2022-07-25T02:08:42;3.00;;;2.80;;
27495;SDS011;14929;51.336;9.416;2022-07-25T02:11:10;3.25;;;3.00;;
27495;SDS011;14929;51.336;9.416;2022-07-25T02:13:39;3.05;;;2.85;;
27495;SDS011;14929;51.336;9.416;2022-07-25T02:16:06;2.67;;;2.47;;
27495;SDS011;14929;51.336;9.416;2022-07-25T02:18:34;3.30;;;3.00;;
27495;SDS011;14929;51.336;9.416;2022-07-25T02:21:01;2.85;;;2.65;;
27495;SDS011;14929;51.336;9.416;2022-07-25T02:23:31;2.65;;;2.50;;
27495;SDS011;14929;51.336;9.416;2022-07-25T02:25:58;2.47;;;2.38;;
27495;SDS011;14929;51.336;9.416;2022-07-25T02:28:26;2.30;;;2.15;;
27495;SDS011;14929;51.336;9.416;2022-07-25T02:30:55;2.40;;;2.30;;
27495;SDS011;14929;51.336;9.416;2022-07-25T02:33:23;2.95;;;2.75;;
27495;SDS011;14929;51.336;9.416;2022-07-25T02:35:50;2.40;;;2.20;;
27495;SDS011;14929;51.336;9.416;2022-07-25T02:38:18;2.25;;;2.08;;
27495;SDS011;14929;51.336;9.416;2022-07-25T02:40:46;2.20;;;2.08;;
27495;SDS011;14929;51.336;9.416;2022-07-25T02:43:14;1.70;;;1.60;;
27495;SDS011;14929;51.336;9.416;2022-07-25T02:45:42;2.30;;;2.20;;
27495;SDS011;14929;51.336;9.416;2022-07-25T02:48:12;2.08;;;1.98;;
27495;SDS011;14929;51.336;9.416;2022-07-25T02:50:39;2.42;;;2.30;;
27495;SDS011;14929;51.336;9.416;2022-07-25T02:53:07;2.78;;;2.50;;
27495;SDS011;14929;51.336;9.416;2022-07-25T02:55:34;2.20;;;2.05;;
27495;SDS011;14929;51.336;9.416;2022-07-25T02:58:02;2.70;;;2.00;;
27495;SDS011;14929;51.336;9.416;2022-07-25T03:00:29;2.00;;;1.90;;
27495;SDS011;14929;51.336;9.416;2022-07-25T03:02:57;2.78;;;1.95;;
27495;SDS011;14929;51.336;9.416;2022-07-25T03:05:26;2.35;;;2.17;;
27495;SDS011;14929;51.336;9.416;2022-07-25T03:07:54;2.22;;;2.13;;
27495;SDS011;14929;51.336;9.416;2022-07-25T03:10:22;2.50;;;2.30;;
27495;SDS011;14929;51.336;9.416;2022-07-25T03:12:49;3.10;;;2.33;;
27495;SDS011;14929;51.336;9.416;2022-07-25T03:15:17;2.30;;;2.20;;
27495;SDS011;14929;51.336;9.416;2022-07-25T03:17:44;2.20;;;2.10;;
27495;SDS011;14929;51.336;9.416;2022-07-25T03:20:12;2.10;;;2.00;;
27495;SDS011;14929;51.336;9.416;2022-07-25T03:22:40;2.45;;;2.33;;
27495;SDS011;14929;51.336;9.416;2022-07-25T03:25:08;2.20;;;2.10;;
27495;SDS011;14929;51.336;9.416;2022-07-25T03:27:36;2.65;;;2.50;;
27495;SDS011;14929;51.336;9.416;2022-07-25T03:30:04;2.22;;;2.13;;
27495;SDS011;14929;51.336;9.416;2022-07-25T03:32:33;3.00;;;2.80;;
27495;SDS011;14929;51.336;9.416;2022-07-25T03:35:00;2.20;;;2.10;;
27495;SDS011;14929;51.336;9.416;2022-07-25T03:37:29;2.60;;;2.40;;
27495;SDS011;14929;51.336;9.416;2022-07-25T03:39:58;2.22;;;2.10;;
27495;SDS011;14929;51.336;9.416;2022-07-25T03:42:26;2.28;;;2.08;;
27495;SDS011;14929;51.336;9.416;2022-07-25T03:44:53;2.28;;;2.10;;
27495;SDS011;14929;51.336;9.416;2022-07-25T03:47:21;2.58;;;2.38;;
27495;SDS011;14929;51.336;9.416;2022-07-25T03:49:48;2.60;;;2.40;;
27495;SDS011;14929;51.336;9.416;2022-07-25T03:52:16;2.65;;;2.45;;
27495;SDS011;14929;51.336;9.416;2022-07-25T03:54:43;2.10;;;2.00;;
27495;SDS011;14929;51.336;9.416;2022-07-25T03:57:12;2.22;;;1.80;;
27495;SDS011;14929;51.336;9.416;2022-07-25T03:59:40;2.00;;;1.90;;
27495;SDS011;14929;51.336;9.416;2022-07-25T04:02:07;2.20;;;2.10;;
27495;SDS011;14929;51.336;9.416;2022-07-25T04:04:35;2.00;;;1.90;;
27495;SDS011;14929;51.336;9.416;2022-07-25T04:07:02;2.10;;;2.00;;
27495;SDS011;14929;51.336;9.416;2022-07-25T04:09:30;2.33;;;2.13;;
27495;SDS011;14929;51.336;9.416;2022-07-25T04:11:57;2.08;;;1.98;;
27495;SDS011;14929;51.336;9.416;2022-07-25T04:14:26;2.17;;;2.08;;
27495;SDS011;14929;51.336;9.416;2022-07-25T04:16:54;2.13;;;2.03;;
27495;SDS011;14929;51.336;9.416;2022-07-25T04:19:21;2.55;;;2.35;;
27495;SDS011;14929;51.336;9.416;2022-07-25T04:21:49;2.50;;;2.40;;
27495;SDS011;14929;51.336;9.416;2022-07-25T04:24:16;2.50;;;2.30;;
27495;SDS011;14929;51.336;9.416;2022-07-25T04:26:44;3.13;;;2.42;;
27495;SDS011;14929;51.336;9.416;2022-07-25T04:29:11;2.90;;;2.70;;
27495;SDS011;14929;51.336;9.416;2022-07-25T04:31:40;2.88;;;2.67;;
27495;SDS011;14929;51.336;9.416;2022-07-25T04:34:08;2.30;;;2.10;;
27495;SDS011;14929;51.336;9.416;2022-07-25T04:36:35;2.72;;;2.53;;
27495;SDS011;14929;51.336;9.416;2022-07-25T04:39:03;2.72;;;2.53;;
27495;SDS011;14929;51.336;9.416;2022-07-25T04:41:31;3.10;;;2.90;;
27495;SDS011;14929;51.336;9.416;2022-07-25T04:43:58;2.65;;;2.45;;
27495;SDS011;14929;51.336;9.416;2022-07-25T04:46:26;2.67;;;2.47;;
27495;SDS011;14929;51.336;9.416;2022-07-25T04:48:54;2.55;;;2.38;;
27495;SDS011;14929;51.336;9.416;2022-07-25T04:51:22;2.50;;;2.30;;
27495;SDS011;14929;51.336;9.416;2022-07-25T04:53:49;2.63;;;2.42;;
27495;SDS011;14929;51.336;9.416;2022-07-25T04:56:17;2.97;;;2.67;;
27495;SDS011;14929;51.336;9.416;2022-07-25T04:58:44;2.95;;;2.75;;
27495;SDS011;14929;51.336;9.416;2022-07-25T05:01:12;2.50;;;2.40;;
27495;SDS011;14929;51.336;9.416;2022-07-25T05:03:40;2.92;;;2.70;;
27495;SDS011;14929;51.336;9.416;2022-07-25T05:06:09;2.78;;;2.58;;
27495;SDS011;14929;51.336;9.416;2022-07-25T05:08:36;3.17;;;2.90;;
27495;SDS011;14929;51.336;9.416;2022-07-25T05:11:04;4.70;;;3.65;;
27495;SDS011;14929;51.336;9.416;2022-07-25T05:13:32;3.70;;;3.40;;
27495;SDS011;14929;51.336;9.416;2022-07-25T05:15:59;3.50;;;3.20;;
27495;SDS011;14929;51.336;9.416;2022-07-25T05:18:27;3.25;;;3.05;;
27495;SDS011;14929;51.336;9.416;2022-07-25T05:20:55;2.85;;;2.65;;
27495;SDS011;14929;51.336;9.416;2022-07-25T05:23:23;2.80;;;2.60;;
27495;SDS011;14929;51.336;9.416;2022-07-25T05:25:51;2.90;;;2.63;;
27495;SDS011;14929;51.336;9.416;2022-07-25T05:28:18;4.00;;;3.60;;
27495;SDS011;14929;51.336;9.416;2022-07-25T05:30:46;2.80;;;2.60;;
27495;SDS011;14929;51.336;9.416;2022-07-25T05:33:13;3.30;;;3.03;;
27495;SDS011;14929;51.336;9.416;2022-07-25T05:35:41;3.95;;;3.55;;
27495;SDS011;14929;51.336;9.416;2022-07-25T05:38:09;4.03;;;3.72;;
27495;SDS011;14929;51.336;9.416;2022-07-25T05:40:37;5.30;;;3.70;;
27495;SDS011;14929;51.336;9.416;2022-07-25T05:43:05;4.38;;;4.03;;
27495;SDS011;14929;51.336;9.416;2022-07-25T05:45:33;4.03;;;3.63;;
27495;SDS011;14929;51.336;9.416;2022-07-25T05:48:00;3.72;;;3.42;;
27495;SDS011;14929;51.336;9.416;2022-07-25T05:50:28;3.88;;;3.58;;
27495;SDS011;14929;51.336;9.416;2022-07-25T05:52:55;3.72;;;3.42;;
27495;SDS011;14929;51.336;9.416;2022-07-25T05:55:23;4.13;;;3.60;;
27495;SDS011;14929;51.336;9.416;2022-07-25T05:57:52;3.33;;;3.08;;
27495;SDS011;14929;51.336;9.416;2022-07-25T06:00:20;3.25;;;3.00;;
27495;SDS011;14929;51.336;9.416;2022-07-25T06:02:47;4.18;;;3.88;;
27495;SDS011;14929;51.336;9.416;2022-07-25T06:05:15;3.10;;;2.90;;
27495;SDS011;14929;51.336;9.416;2022-07-25T06:07:42;4.60;;;4.20;;
27495;SDS011;14929;51.336;9.416;2022-07-25T06:10:10;3.80;;;3.50;;
27495;SDS011;14929;51.336;9.416;2022-07-25T06:12:37;4.50;;;4.10;;
27495;SDS011;14929;51.336;9.416;2022-07-25T06:15:07;4.22;;;3.63;;
27495;SDS011;14929;51.336;9.416;2022-07-25T06:17:35;3.85;;;3.55;;
27495;SDS011;14929;51.336;9.416;2022-07-25T06:20:03;4.13;;;3.72;;
27495;SDS011;14929;51.336;9.416;2022-07-25T06:22:32;4.68;;;4.28;;
27495;SDS011;14929;51.336;9.416;2022-07-25T06:25:00;6.88;;;4.65;;
27495;SDS011;14929;51.336;9.416;2022-07-25T06:27:28;5.05;;;4.20;;
27495;SDS011;14929;51.336;9.416;2022-07-25T06:29:55;4.30;;;3.97;;
27495;SDS011;14929;51.336;9.416;2022-07-25T06:32:24;3.88;;;3.58;;
27495;SDS011;14929;51.336;9.416;2022-07-25T06:34:52;5.72;;;4.78;;
27495;SDS011;14929;51.336;9.416;2022-07-25T06:37:19;4.20;;;3.90;;
27495;SDS011;14929;51.336;9.416;2022-07-25T06:39:47;4.88;;;4.43;;
27495;SDS011;14929;51.336;9.416;2022-07-25T06:42:14;6.05;;;4.72;;
27495;SDS011;14929;51.336;9.416;2022-07-25T06:44:42;3.92;;;3.63;;
27495;SDS011;14929;51.336;9.416;2022-07-25T06:47:10;4.25;;;3.88;;
27495;SDS011;14929;51.336;9.416;2022-07-25T06:49:39;4.80;;;4.40;;
27495;SDS011;14929;51.336;9.416;2022-07-25T06:52:07;4.50;;;4.10;;
27495;SDS011;14929;51.336;9.416;2022-07-25T06:54:35;3.92;;;3.63;;
27495;SDS011;14929;51.336;9.416;2022-07-25T06:57:03;5.20;;;4.80;;
27495;SDS011;14929;51.336;9.416;2022-07-25T06:59:30;4.82;;;4.43;;
27495;SDS011;14929;51.336;9.416;2022-07-25T07:01:58;4.95;;;4.53;;
27495;SDS011;14929;51.336;9.416;2022-07-25T07:04:26;4.57;;;4.18;;
27495;SDS011;14929;51.336;9.416;2022-07-25T07:06:55;4.85;;;4.45;;
27495;SDS011;14929;51.336;9.416;2022-07-25T07:09:22;4.78;;;4.05;;
27495;SDS011;14929;51.336;9.416;2022-07-25T07:11:50;5.45;;;5.05;;
27495;SDS011;14929;51.336;9.416;2022-07-25T07:14:17;5.18;;;4.75;;
27495;SDS011;14929;51.336;9.416;2022-07-25T07:16:45;4.93;;;4.53;;
27495;SDS011;14929;51.336;9.416;2022-07-25T07:19:12;5.57;;;5.07;;
27495;SDS011;14929;51.336;9.416;2022-07-25T07:21:40;5.50;;;5.03;;
27495;SDS011;14929;51.336;9.416;2022-07-25T07:24:09;6.13;;;5.63;;
27495;SDS011;14929;51.336;9.416;2022-07-25T07:26:36;5.93;;;5.43;;
27495;SDS011;14929;51.336;9.416;2022-07-25T07:29:04;5.43;;;4.93;;
27495;SDS011;14929;51.336;9.416;2022-07-25T07:31:31;4.32;;;4.00;;
27495;SDS011;14929;51.336;9.416;2022-07-25T07:33:59;5.47;;;4.90;;
27495;SDS011;14929;51.336;9.416;2022-07-25T07:36:27;5.30;;;4.90;;
27495;SDS011;14929;51.336;9.416;2022-07-25T07:38:54;6.03;;;5.53;;
27495;SDS011;14929;51.336;9.416;2022-07-25T07:41:23;4.95;;;4.55;;
27495;SDS011;14929;51.336;9.416;2022-07-25T07:43:51;5.72;;;5.22;;
27495;SDS011;14929;51.336;9.416;2022-07-25T07:46:18;5.60;;;5.20;;
27495;SDS011;14929;51.336;9.416;2022-07-25T07:48:46;5.85;;;5.45;;
27495;SDS011;14929;51.336;9.416;2022-07-25T07:51:13;5.30;;;4.90;;
27495;SDS011;14929;51.336;9.416;2022-07-25T07:53:41;4.70;;;4.30;;
27495;SDS011;14929;51.336;9.416;2022-07-25T07:56:27;4.72;;;4.28;;
27495;SDS011;14929;51.336;9.416;2022-07-25T07:58:55;5.72;;;5.25;;
27495;SDS011;14929;51.336;9.416;2022-07-25T08:01:22;4.55;;;4.25;;
27495;SDS011;14929;51.336;9.416;2022-07-25T08:03:51;4.85;;;4.55;;
27495;SDS011;14929;51.336;9.416;2022-07-25T08:06:18;4.30;;;4.00;;
27495;SDS011;14929;51.336;9.416;2022-07-25T08:08:46;4.88;;;4.47;;
27495;SDS011;14929;51.336;9.416;2022-07-25T08:11:13;4.20;;;3.80;;
27495;SDS011;14929;51.336;9.416;2022-07-25T08:13:42;4.22;;;3.92;;
27495;SDS011;14929;51.336;9.416;2022-07-25T08:16:10;4.20;;;3.90;;
27495;SDS011;14929;51.336;9.416;2022-07-25T08:18:38;4.07;;;3.78;;
27495;SDS011;14929;51.336;9.416;2022-07-25T08:21:06;4.57;;;4.28;;
27495;SDS011;14929;51.336;9.416;2022-07-25T08:23:34;5.30;;;4.90;;
27495;SDS011;14929;51.336;9.416;2022-07-25T08:26:02;4.85;;;4.45;;
27495;SDS011;14929;51.336;9.416;2022-07-25T08:28:31;4.55;;;4.25;;
27495;SDS011;14929;51.336;9.416;2022-07-25T08:31:00;5.50;;;5.10;;
27495;SDS011;14929;51.336;9.416;2022-07-25T08:33:28;4.80;;;4.40;;
27495;SDS011;14929;51.336;9.416;2022-07-25T08:35:55;4.60;;;4.20;;
27495;SDS011;14929;51.336;9.416;2022-07-25T08:38:24;4.78;;;4.40;;
27495;SDS011;14929;51.336;9.416;2022-07-25T08:40:53;4.68;;;4.38;;
27495;SDS011;14929;51.336;9.416;2022-07-25T08:43:21;5.03;;;4.65;;
27495;SDS011;14929;51.336;9.416;2022-07-25T08:45:50;5.22;;;4.82;;
27495;SDS011;14929;51.336;9.416;2022-07-25T08:48:20;4.40;;;4.10;;
27495;SDS011;14929;51.336;9.416;2022-07-25T08:50:49;4.72;;;4.43;;
27495;SDS011;14929;51.336;9.416;2022-07-25T08:53:18;4.45;;;4.15;;
27495;SDS011;14929;51.336;9.416;2022-07-25T08:55:46;5.68;;;5.28;;
27495;SDS011;14929;51.336;9.416;2022-07-25T08:58:15;5.32;;;4.93;;
27495;SDS011;14929;51.336;9.416;2022-07-25T09:00:43;5.13;;;4.82;;
27495;SDS011;14929;51.336;9.416;2022-07-25T09:03:11;4.78;;;4.47;;
27495;SDS011;14929;51.336;9.416;2022-07-25T09:05:40;4.97;;;4.57;;
27495;SDS011;14929;51.336;9.416;2022-07-25T09:08:09;4.75;;;4.45;;
27495;SDS011;14929;51.336;9.416;2022-07-25T09:10:37;5.97;;;5.47;;
27495;SDS011;14929;51.336;9.416;2022-07-25T09:13:10;5.28;;;4.88;;
27495;SDS011;14929;51.336;9.416;2022-07-25T09:15:39;5.50;;;5.10;;
27495;SDS011;14929;51.336;9.416;2022-07-25T09:18:10;4.50;;;4.20;;
27495;SDS011;14929;51.336;9.416;2022-07-25T09:20:41;4.68;;;4.38;;
27495;SDS011;14929;51.336;9.416;2022-07-25T09:23:10;5.28;;;4.95;;
27495;SDS011;14929;51.336;9.416;2022-07-25T09:25:40;5.80;;;5.30;;
27495;SDS011;14929;51.336;9.416;2022-07-25T09:28:09;5.55;;;5.15;;
27495;SDS011;14929;51.336;9.416;2022-07-25T09:30:50;5.70;;;5.30;;
27495;SDS011;14929;51.336;9.416;2022-07-25T09:33:20;5.07;;;4.72;;
27495;SDS011;14929;51.336;9.416;2022-07-25T09:35:50;5.68;;;5.28;;
27495;SDS011;14929;51.336;9.416;2022-07-25T09:38:18;4.30;;;4.00;;
27495;SDS011;14929;51.336;9.416;2022-07-25T09:40:54;5.38;;;5.07;;
27495;SDS011;14929;51.336;9.416;2022-07-25T09:43:22;5.18;;;4.85;;
27495;SDS011;14929;51.336;9.416;2022-07-25T09:46:00;5.88;;;5.38;;
27495;SDS011;14929;51.336;9.416;2022-07-25T09:48:27;5.25;;;4.90;;
27495;SDS011;14929;51.336;9.416;2022-07-25T09:50:57;5.45;;;5.15;;
27495;SDS011;14929;51.336;9.416;2022-07-25T09:53:26;4.90;;;4.60;;
27495;SDS011;14929;51.336;9.416;2022-07-25T09:55:54;5.20;;;4.80;;
27495;SDS011;14929;51.336;9.416;2022-07-25T09:58:22;5.38;;;5.03;;
27495;SDS011;14929;51.336;9.416;2022-07-25T10:00:49;5.50;;;5.20;;
27495;SDS011;14929;51.336;9.416;2022-07-25T10:03:23;5.60;;;5.20;;
27495;SDS011;14929;51.336;9.416;2022-07-25T10:06:07;6.07;;;5.72;;
27495;SDS011;14929;51.336;9.416;2022-07-25T10:08:44;6.55;;;5.72;;
27495;SDS011;14929;51.336;9.416;2022-07-25T10:11:19;5.95;;;5.50;;
27495;SDS011;14929;51.336;9.416;2022-07-25T10:13:48;5.13;;;4.82;;
27495;SDS011;14929;51.336;9.416;2022-07-25T10:16:17;5.95;;;5.55;;
27495;SDS011;14929;51.336;9.416;2022-07-25T10:18:46;5.65;;;5.35;;
27495;SDS011;14929;51.336;9.416;2022-07-25T10:21:17;5.93;;;5.53;;
27495;SDS011;14929;51.336;9.416;2022-07-25T10:23:55;5.28;;;4.97;;
27495;SDS011;14929;51.336;9.416;2022-07-25T10:26:24;4.88;;;4.57;;
27495;SDS011;14929;51.336;9.416;2022-07-25T10:28:53;3.83;;;3.55;;
27495;SDS011;14929;51.336;9.416;2022-07-25T10:31:22;4.78;;;4.38;;
27495;SDS011;14929;51.336;9.416;2022-07-25T10:33:52;15.35;;;8.15;;
27495;SDS011;14929;51.336;9.416;2022-07-25T10:36:24;6.95;;;6.28;;
27495;SDS011;14929;51.336;9.416;2022-07-25T10:38:58;5.70;;;5.30;;
27495;SDS011;14929;51.336;9.416;2022-07-25T10:41:27;6.57;;;6.07;;
27495;SDS011;14929;51.336;9.416;2022-07-25T10:43:55;5.95;;;5.55;;
27495;SDS011;14929;51.336;9.416;2022-07-25T10:46:27;6.10;;;5.70;;
27495;SDS011;14929;51.336;9.416;2022-07-25T10:48:57;5.00;;;4.70;;
27495;SDS011;14929;51.336;9.416;2022-07-25T10:51:28;5.40;;;5.00;;
27495;SDS011;14929;51.336;9.416;2022-07-25T10:53:58;5.88;;;5.47;;
27495;SDS011;14929;51.336;9.416;2022-07-25T10:56:26;5.93;;;5.53;;
27495;SDS011;14929;51.336;9.416;2022-07-25T10:58:55;5.32;;;4.93;;
27495;SDS011;14929;51.336;9.416;2022-07-25T11:01:24;5.80;;;5.40;;
27495;SDS011;14929;51.336;9.416;2022-07-25T11:03:53;5.53;;;5.20;;
27495;SDS011;14929;51.336;9.416;2022-07-25T11:06:30;5.78;;;5.28;;
27495;SDS011;14929;51.336;9.416;2022-07-25T11:09:00;5.15;;;4.80;;
27495;SDS011;14929;51.336;9.416;2022-07-25T11:11:32;5.15;;;4.85;;
27495;SDS011;14929;51.336;9.416;2022-07-25T11:14:02;4.57;;;4.28;;
27495;SDS011;14929;51.336;9.416;2022-07-25T11:16:30;4.40;;;4.10;;
27495;SDS011;14929;51.336;9.416;2022-07-25T11:18:58;4.40;;;4.10;;
27495;SDS011;14929;51.336;9.416;2022-07-25T11:21:25;4.65;;;4.35;;
27495;SDS011;14929;51.336;9.416;2022-07-25T11:23:54;4.30;;;4.05;;
27495;SDS011;14929;51.336;9.416;2022-07-25T11:26:22;4.88;;;4.57;;
27495;SDS011;14929;51.336;9.416;2022-07-25T11:28:49;4.78;;;4.47;;
27495;SDS011;14929;51.336;9.416;2022-07-25T11:31:17;4.72;;;4.43;;
27495;SDS011;14929;51.336;9.416;2022-07-25T11:33:47;4.82;;;4.43;;
27495;SDS011;14929;51.336;9.416;2022-07-25T11:36:15;3.97;;;3.67;;
27495;SDS011;14929;51.336;9.416;2022-07-25T11:38:45;4.53;;;4.22;;
27495;SDS011;14929;51.336;9.416;2022-07-25T11:41:15;5.25;;;4.85;;
27495;SDS011;14929;51.336;9.416;2022-07-25T11:43:52;3.75;;;3.55;;
27495;SDS011;14929;51.336;9.416;2022-07-25T11:46:20;4.32;;;4.03;;
27495;SDS011;14929;51.336;9.416;2022-07-25T11:48:48;5.57;;;5.20;;
27495;SDS011;14929;51.336;9.416;2022-07-25T11:51:16;5.15;;;4.85;;
27495;SDS011;14929;51.336;9.416;2022-07-25T11:53:46;5.20;;;4.80;;
27495;SDS011;14929;51.336;9.416;2022-07-25T11:56:18;5.05;;;4.75;;
27495;SDS011;14929;51.336;9.416;2022-07-25T11:58:49;4.90;;;4.60;;
27495;SDS011;14929;51.336;9.416;2022-07-25T12:01:24;4.78;;;4.47;;
27495;SDS011;14929;51.336;9.416;2022-07-25T12:04:06;4.78;;;4.47;;
27495;SDS011;14929;51.336;9.416;2022-07-25T12:06:35;4.53;;;4.20;;
27495;SDS011;14929;51.336;9.416;2022-07-25T12:09:09;4.78;;;4.47;;
27495;SDS011;14929;51.336;9.416;2022-07-25T12:11:40;4.50;;;4.20;;
27495;SDS011;14929;51.336;9.416;2022-07-25T12:14:08;5.50;;;5.00;;
27495;SDS011;14929;51.336;9.416;2022-07-25T12:16:37;5.47;;;5.18;;
27495;SDS011;14929;51.336;9.416;2022-07-25T12:19:07;5.05;;;4.75;;
27495;SDS011;14929;51.336;9.416;2022-07-25T12:21:43;5.60;;;5.20;;
27495;SDS011;14929;51.336;9.416;2022-07-25T12:24:10;4.50;;;4.20;;
27495;SDS011;14929;51.336;9.416;2022-07-25T12:26:39;4.10;;;3.90;;
27495;SDS011;14929;51.336;9.416;2022-07-25T12:29:07;5.07;;;4.78;;
27495;SDS011;14929;51.336;9.416;2022-07-25T12:31:34;5.30;;;5.00;;
27495;SDS011;14929;51.336;9.416;2022-07-25T12:34:02;6.22;;;5.78;;
27495;SDS011;14929;51.336;9.416;2022-07-25T12:36:30;5.25;;;4.85;;
27495;SDS011;14929;51.336;9.416;2022-07-25T12:38:58;5.47;;;5.07;;
27495;SDS011;14929;51.336;9.416;2022-07-25T12:41:26;4.30;;;4.00;;
27495;SDS011;14929;51.336;9.416;2022-07-25T12:43:54;4.57;;;4.28;;
27495;SDS011;14929;51.336;9.416;2022-07-25T12:46:22;4.63;;;4.32;;
27495;SDS011;14929;51.336;9.416;2022-07-25T12:48:50;4.78;;;4.47;;
27495;SDS011;14929;51.336;9.416;2022-07-25T12:51:17;11.38;;;6.38;;
27495;SDS011;14929;51.336;9.416;2022-07-25T12:53:45;6.82;;;6.20;;
27495;SDS011;14929;51.336;9.416;2022-07-25T12:56:13;6.00;;;5.60;;
27495;SDS011;14929;51.336;9.416;2022-07-25T12:58:41;5.65;;;5.00;;
27495;SDS011;14929;51.336;9.416;2022-07-25T13:01:10;5.43;;;5.03;;
27495;SDS011;14929;51.336;9.416;2022-07-25T13:03:38;5.25;;;4.78;;
27495;SDS011;14929;51.336;9.416;2022-07-25T13:06:05;4.55;;;4.25;;
27495;SDS011;14929;51.336;9.416;2022-07-25T13:08:33;3.70;;;3.50;;
27495;SDS011;14929;51.336;9.416;2022-07-25T13:11:01;3.70;;;3.40;;
27495;SDS011;14929;51.336;9.416;2022-07-25T13:13:29;4.40;;;4.10;;
27495;SDS011;14929;51.336;9.416;2022-07-25T13:15:57;3.88;;;3.58;;
27495;SDS011;14929;51.336;9.416;2022-07-25T13:18:26;4.55;;;4.22;;
27495;SDS011;14929;51.336;9.416;2022-07-25T13:20:54;4.82;;;4.43;;
27495;SDS011;14929;51.336;9.416;2022-07-25T13:23:21;4.72;;;4.32;;
27495;SDS011;14929;51.336;9.416;2022-07-25T13:25:49;3.60;;;3.40;;
27495;SDS011;14929;51.336;9.416;2022-07-25T13:28:17;4.70;;;4.25;;
27495;SDS011;14929;51.336;9.416;2022-07-25T13:30:44;4.65;;;4.25;;
27495;SDS011;14929;51.336;9.416;2022-07-25T13:33:12;4.93;;;4.28;;
27495;SDS011;14929;51.336;9.416;2022-07-25T13:35:41;4.78;;;4.38;;
27495;SDS011;14929;51.336;9.416;2022-07-25T13:38:08;4.82;;;4.47;;
27495;SDS011;14929;51.336;9.416;2022-07-25T13:40:36;6.45;;;4.95;;
27495;SDS011;14929;51.336;9.416;2022-07-25T13:43:06;4.60;;;4.20;;
27495;SDS011;14929;51.336;9.416;2022-07-25T13:45:33;4.68;;;4.28;;
27495;SDS011;14929;51.336;9.416;2022-07-25T13:48:01;4.20;;;3.90;;
27495;SDS011;14929;51.336;9.416;2022-07-25T13:50:29;4.38;;;3.97;;
27495;SDS011;14929;51.336;9.416;2022-07-25T13:52:58;3.92;;;3.63;;
27495;SDS011;14929;51.336;9.416;2022-07-25T13:55:28;4.28;;;3.97;;
27495;SDS011;14929;51.336;9.416;2022-07-25T13:57:57;3.90;;;3.60;;
27495;SDS011;14929;51.336;9.416;2022-07-25T14:00:24;4.45;;;4.13;;
27495;SDS011;14929;51.336;9.416;2022-07-25T14:02:52;3.65;;;3.45;;
27495;SDS011;14929;51.336;9.416;2022-07-25T14:05:20;3.17;;;2.90;;
27495;SDS011;14929;51.336;9.416;2022-07-25T14:07:48;3.67;;;3.40;;
27495;SDS011;14929;51.336;9.416;2022-07-25T14:10:17;3.95;;;3.65;;
27495;SDS011;14929;51.336;9.416;2022-07-25T14:12:44;3.67;;;3.47;;
27495;SDS011;14929;51.336;9.416;2022-07-25T14:15:12;4.93;;;4.10;;
27495;SDS011;14929;51.336;9.416;2022-07-25T14:17:40;4.25;;;3.88;;
27495;SDS011;14929;51.336;9.416;2022-07-25T14:20:08;3.78;;;3.47;;
27495;SDS011;14929;51.336;9.416;2022-07-25T14:22:37;4.28;;;3.88;;
27495;SDS011;14929;51.336;9.416;2022-07-25T14:25:06;4.05;;;3.75;;
27495;SDS011;14929;51.336;9.416;2022-07-25T14:27:36;4.50;;;4.10;;
27495;SDS011;14929;51.336;9.416;2022-07-25T14:30:06;4.32;;;3.92;;
27495;SDS011;14929;51.336;9.416;2022-07-25T14:32:35;4.93;;;4.50;;
27495;SDS011;14929;51.336;9.416;2022-07-25T14:35:03;4.90;;;4.50;;
27495;SDS011;14929;51.336;9.416;2022-07-25T14:37:32;4.55;;;4.25;;
27495;SDS011;14929;51.336;9.416;2022-07-25T14:40:00;4.75;;;4.40;;
27495;SDS011;14929;51.336;9.416;2022-07-25T14:42:28;4.32;;;4.03;;
27495;SDS011;14929;51.336;9.416;2022-07-25T14:44:57;4.07;;;3.80;;
27495;SDS011;14929;51.336;9.416;2022-07-25T14:47:24;4.05;;;3.75;;
27495;SDS011;14929;51.336;9.416;2022-07-25T14:49:52;3.50;;;3.20;;
27495;SDS011;14929;51.336;9.416;2022-07-25T14:52:19;3.88;;;3.58;;
27495;SDS011;14929;51.336;9.416;2022-07-25T14:54:48;3.45;;;3.25;;